sensor_id;sensor_type;location;lat;lon;timestamp;pressure;altitude;pressure_sealevel;temperature;humidity
43155;BME280;34212;51.018;13.586;2023-06-22T00:04:29;98181.41;;;22.09;56.82
43155;BME280;34212;51.018;13.586;2023-06-22T00:09:31;98185.66;;;22.05;56.75
43155;BME280;34212;51.018;13.586;2023-06-22T00:14:32;98182.88;;;22.00;56.88
43155;BME280;34212;51.018;13.586;2023-06-22T00:19:34;98189.28;;;21.94;57.00
43155;BME280;34212;51.018;13.586;2023-06-22T00:24:36;98206.78;;;21.86;57.00
43155;BME280;34212;51.018;13.586;2023-06-22T00:29:38;98196.66;;;21.81;57.38
43155;BME280;34212;51.018;13.586;2023-06-22T00:34:39;98188.41;;;21.76;57.17
43155;BME280;34212;51.018;13.586;2023-06-22T00:39:41;98193.03;;;21.76;57.27
43155;BME280;34212;51.018;13.586;2023-06-22T00:44:42;98195.63;;;21.71;57.39
43155;BME280;34212;51.018;13.586;2023-06-22T00:49:45;98186.91;;;21.68;57.33
43155;BME280;34212;51.018;13.586;2023-06-22T00:54:48;98184.69;;;21.65;57.37
43155;BME280;34212;51.018;13.586;2023-06-22T00:59:50;98186.56;;;21.65;57.52
43155;BME280;34212;51.018;13.586;2023-06-22T01:04:52;98181.97;;;21.65;57.68
43155;BME280;34212;51.018;13.586;2023-06-22T01:15:10;98168.88;;;21.62;57.69
43155;BME280;34212;51.018;13.586;2023-06-22T01:20:13;98169.72;;;21.63;57.77
43155;BME280;34212;51.018;13.586;2023-06-22T01:25:20;98179.16;;;21.60;57.82
43155;BME280;34212;51.018;13.586;2023-06-22T01:30:22;98176.81;;;21.52;57.96
43155;BME280;34212;51.018;13.586;2023-06-22T01:35:27;98178.97;;;21.50;58.01
43155;BME280;34212;51.018;13.586;2023-06-22T01:40:29;98178.16;;;21.50;58.16
43155;BME280;34212;51.018;13.586;2023-06-22T01:45:31;98186.16;;;21.44;58.21
43155;BME280;34212;51.018;13.586;2023-06-22T01:50:33;98185.25;;;21.39;58.42
43155;BME280;34212;51.018;13.586;2023-06-22T01:55:34;98179.09;;;21.32;58.43
43155;BME280;34212;51.018;13.586;2023-06-22T02:00:37;98174.63;;;21.26;58.45
43155;BME280;34212;51.018;13.586;2023-06-22T02:05:48;98164.50;;;21.21;58.49
43155;BME280;34212;51.018;13.586;2023-06-22T02:10:50;98159.91;;;21.21;58.50
43155;BME280;34212;51.018;13.586;2023-06-22T02:15:54;98157.44;;;21.20;58.60
43155;BME280;34212;51.018;13.586;2023-06-22T02:20:55;98162.50;;;21.16;58.64
43155;BME280;34212;51.018;13.586;2023-06-22T02:25:57;98175.47;;;21.14;58.66
43155;BME280;34212;51.018;13.586;2023-06-22T02:30:58;98161.34;;;21.12;58.92
43155;BME280;34212;51.018;13.586;2023-06-22T02:36:00;98170.44;;;21.06;58.99
43155;BME280;34212;51.018;13.586;2023-06-22T02:41:02;98181.63;;;20.98;59.00
43155;BME280;34212;51.018;13.586;2023-06-22T02:46:03;98189.56;;;20.88;59.11
43155;BME280;34212;51.018;13.586;2023-06-22T02:51:04;98187.78;;;20.82;59.17
43155;BME280;34212;51.018;13.586;2023-06-22T02:56:08;98174.72;;;20.79;59.17
43155;BME280;34212;51.018;13.586;2023-06-22T03:01:11;98186.59;;;20.77;59.38
43155;BME280;34212;51.018;13.586;2023-06-22T03:06:17;98178.25;;;20.79;59.17
43155;BME280;34212;51.018;13.586;2023-06-22T03:11:24;98182.38;;;20.82;59.22
43155;BME280;34212;51.018;13.586;2023-06-22T03:16:26;98165.28;;;20.81;59.33
43155;BME280;34212;51.018;13.586;2023-06-22T03:21:28;98144.91;;;20.79;59.41
43155;BME280;34212;51.018;13.586;2023-06-22T03:26:29;98139.47;;;20.79;59.33
43155;BME280;34212;51.018;13.586;2023-06-22T03:31:31;98146.06;;;20.83;59.44
43155;BME280;34212;51.018;13.586;2023-06-22T03:36:33;98145.59;;;20.86;59.40
43155;BME280;34212;51.018;13.586;2023-06-22T03:41:36;98149.94;;;20.87;59.58
43155;BME280;34212;51.018;13.586;2023-06-22T03:46:37;98153.50;;;20.87;59.57
43155;BME280;34212;51.018;13.586;2023-06-22T03:51:39;98150.19;;;20.85;59.76
43155;BME280;34212;51.018;13.586;2023-06-22T03:56:40;98149.38;;;20.85;59.94
43155;BME280;34212;51.018;13.586;2023-06-22T04:01:42;98145.38;;;20.87;59.83
43155;BME280;34212;51.018;13.586;2023-06-22T04:06:43;98163.00;;;20.90;60.03
43155;BME280;34212;51.018;13.586;2023-06-22T04:11:45;98166.78;;;20.89;60.02
43155;BME280;34212;51.018;13.586;2023-06-22T04:16:46;98163.00;;;20.90;60.34
43155;BME280;34212;51.018;13.586;2023-06-22T04:21:47;98158.44;;;20.90;60.49
43155;BME280;34212;51.018;13.586;2023-06-22T04:26:49;98165.50;;;20.91;60.64
43155;BME280;34212;51.018;13.586;2023-06-22T04:31:54;98163.72;;;20.97;60.61
43155;BME280;34212;51.018;13.586;2023-06-22T04:36:57;98180.69;;;21.04;60.49
43155;BME280;34212;51.018;13.586;2023-06-22T04:41:58;98191.75;;;21.14;60.51
43155;BME280;34212;51.018;13.586;2023-06-22T04:47:03;98206.84;;;21.22;60.92
43155;BME280;34212;51.018;13.586;2023-06-22T04:52:08;98214.84;;;21.29;61.01
43155;BME280;34212;51.018;13.586;2023-06-22T04:57:10;98222.03;;;21.35;61.68
43155;BME280;34212;51.018;13.586;2023-06-22T05:02:11;98238.41;;;21.40;62.27
43155;BME280;34212;51.018;13.586;2023-06-22T05:07:13;98247.84;;;21.49;62.14
43155;BME280;34212;51.018;13.586;2023-06-22T05:12:14;98255.81;;;21.67;61.98
43155;BME280;34212;51.018;13.586;2023-06-22T05:17:16;98248.47;;;21.80;62.40
43155;BME280;34212;51.018;13.586;2023-06-22T05:22:20;98251.41;;;21.90;62.29
43155;BME280;34212;51.018;13.586;2023-06-22T05:27:21;98257.56;;;22.02;62.26
43155;BME280;34212;51.018;13.586;2023-06-22T05:32:23;98233.91;;;22.14;62.14
43155;BME280;34212;51.018;13.586;2023-06-22T05:37:24;98223.59;;;22.28;62.08
43155;BME280;34212;51.018;13.586;2023-06-22T05:42:26;98226.00;;;22.42;61.85
43155;BME280;34212;51.018;13.586;2023-06-22T05:47:27;98235.47;;;22.56;61.93
43155;BME280;34212;51.018;13.586;2023-06-22T05:52:28;98238.09;;;22.68;61.96
43155;BME280;34212;51.018;13.586;2023-06-22T05:57:30;98229.69;;;22.86;61.92
43155;BME280;34212;51.018;13.586;2023-06-22T06:02:31;98230.84;;;23.07;61.88
43155;BME280;34212;51.018;13.586;2023-06-22T06:07:35;98223.72;;;23.23;61.77
43155;BME280;34212;51.018;13.586;2023-06-22T06:12:36;98206.00;;;23.42;61.94
43155;BME280;34212;51.018;13.586;2023-06-22T06:22:49;98100.06;;;23.85;61.69
43155;BME280;34212;51.018;13.586;2023-06-22T06:27:50;98093.88;;;23.94;62.01
43155;BME280;34212;51.018;13.586;2023-06-22T06:32:52;98123.38;;;24.03;62.04
43155;BME280;34212;51.018;13.586;2023-06-22T06:37:54;98150.91;;;24.06;61.97
43155;BME280;34212;51.018;13.586;2023-06-22T06:42:56;98119.56;;;24.04;62.26
43155;BME280;34212;51.018;13.586;2023-06-22T06:47:58;98118.47;;;24.05;62.15
43155;BME280;34212;51.018;13.586;2023-06-22T06:52:59;98125.66;;;24.16;62.08
43155;BME280;34212;51.018;13.586;2023-06-22T06:58:02;98131.75;;;24.28;62.05
43155;BME280;34212;51.018;13.586;2023-06-22T07:03:08;98137.28;;;24.38;61.95
43155;BME280;34212;51.018;13.586;2023-06-22T07:08:10;98133.56;;;24.50;61.88
43155;BME280;34212;51.018;13.586;2023-06-22T07:13:11;98132.88;;;24.64;62.23
43155;BME280;34212;51.018;13.586;2023-06-22T07:18:13;98143.06;;;24.84;61.86
43155;BME280;34212;51.018;13.586;2023-06-22T07:23:14;98144.34;;;25.14;61.77
43155;BME280;34212;51.018;13.586;2023-06-22T07:28:16;98143.38;;;25.51;61.51
43155;BME280;34212;51.018;13.586;2023-06-22T07:33:17;98142.63;;;25.71;60.99
43155;BME280;34212;51.018;13.586;2023-06-22T07:38:19;98144.00;;;25.73;61.06
43155;BME280;34212;51.018;13.586;2023-06-22T07:43:20;98141.81;;;25.75;61.53
43155;BME280;34212;51.018;13.586;2023-06-22T07:48:23;98146.25;;;25.87;61.39
43155;BME280;34212;51.018;13.586;2023-06-22T07:53:25;98150.88;;;25.96;61.40
43155;BME280;34212;51.018;13.586;2023-06-22T07:58:26;98142.97;;;26.05;61.26
43155;BME280;34212;51.018;13.586;2023-06-22T08:03:27;98146.81;;;26.14;61.28
43155;BME280;34212;51.018;13.586;2023-06-22T08:08:29;98137.50;;;26.31;61.04
43155;BME280;34212;51.018;13.586;2023-06-22T08:13:30;98137.25;;;26.53;60.19
43155;BME280;34212;51.018;13.586;2023-06-22T08:18:32;98132.56;;;26.68;60.06
43155;BME280;34212;51.018;13.586;2023-06-22T08:23:33;98134.22;;;26.75;59.95
43155;BME280;34212;51.018;13.586;2023-06-22T08:28:35;98132.28;;;26.80;60.06
43155;BME280;34212;51.018;13.586;2023-06-22T08:33:37;98131.44;;;26.85;59.94
43155;BME280;34212;51.018;13.586;2023-06-22T08:38:50;98116.66;;;26.91;59.62
43155;BME280;34212;51.018;13.586;2023-06-22T08:43:52;98111.72;;;26.98;59.63
43155;BME280;34212;51.018;13.586;2023-06-22T08:48:54;98118.53;;;27.06;59.41
43155;BME280;34212;51.018;13.586;2023-06-22T08:53:55;98116.59;;;27.11;59.15
43155;BME280;34212;51.018;13.586;2023-06-22T08:58:56;98125.34;;;27.24;59.01
43155;BME280;34212;51.018;13.586;2023-06-22T09:03:58;98109.66;;;27.34;58.68
43155;BME280;34212;51.018;13.586;2023-06-22T09:09:01;98115.38;;;27.43;58.50
43155;BME280;34212;51.018;13.586;2023-06-22T09:14:03;98102.44;;;27.54;58.10
43155;BME280;34212;51.018;13.586;2023-06-22T09:19:05;98094.75;;;27.61;57.88
43155;BME280;34212;51.018;13.586;2023-06-22T09:24:06;98099.31;;;27.71;57.59
43155;BME280;34212;51.018;13.586;2023-06-22T09:29:08;98092.69;;;27.82;57.42
43155;BME280;34212;51.018;13.586;2023-06-22T09:34:11;98087.72;;;27.89;57.43
43155;BME280;34212;51.018;13.586;2023-06-22T09:39:13;98089.03;;;27.97;57.10
43155;BME280;34212;51.018;13.586;2023-06-22T09:44:14;98077.16;;;28.06;56.65
43155;BME280;34212;51.018;13.586;2023-06-22T09:49:17;98068.84;;;28.17;56.48
43155;BME280;34212;51.018;13.586;2023-06-22T09:54:28;98082.69;;;28.30;55.96
43155;BME280;34212;51.018;13.586;2023-06-22T09:59:29;98083.28;;;28.57;55.53
43155;BME280;34212;51.018;13.586;2023-06-22T10:04:30;98069.31;;;28.82;55.20
43155;BME280;34212;51.018;13.586;2023-06-22T10:09:32;98069.72;;;28.94;54.70
43155;BME280;34212;51.018;13.586;2023-06-22T10:14:34;98061.53;;;28.89;54.87
43155;BME280;34212;51.018;13.586;2023-06-22T10:19:35;98064.91;;;28.81;54.98
43155;BME280;34212;51.018;13.586;2023-06-22T10:24:38;98062.94;;;28.87;54.78
43155;BME280;34212;51.018;13.586;2023-06-22T10:29:45;98053.47;;;28.98;54.43
43155;BME280;34212;51.018;13.586;2023-06-22T10:34:46;98046.47;;;29.11;54.45
43155;BME280;34212;51.018;13.586;2023-06-22T10:39:48;98037.28;;;29.20;54.31
43155;BME280;34212;51.018;13.586;2023-06-22T10:44:49;98028.44;;;29.23;53.53
43155;BME280;34212;51.018;13.586;2023-06-22T10:49:51;98036.25;;;29.35;53.32
43155;BME280;34212;51.018;13.586;2023-06-22T10:54:52;98036.75;;;29.56;53.23
43155;BME280;34212;51.018;13.586;2023-06-22T10:59:54;98033.78;;;29.72;52.80
43155;BME280;34212;51.018;13.586;2023-06-22T11:04:55;98028.97;;;29.82;52.53
43155;BME280;34212;51.018;13.586;2023-06-22T11:09:57;98031.31;;;29.89;52.31
43155;BME280;34212;51.018;13.586;2023-06-22T11:14:58;98027.84;;;29.83;51.83
43155;BME280;34212;51.018;13.586;2023-06-22T11:20:00;98010.31;;;29.79;52.01
43155;BME280;34212;51.018;13.586;2023-06-22T11:25:01;98007.41;;;29.89;51.57
43155;BME280;34212;51.018;13.586;2023-06-22T11:30:03;97996.66;;;30.07;51.43
43155;BME280;34212;51.018;13.586;2023-06-22T11:35:05;98011.59;;;30.20;50.81
43155;BME280;34212;51.018;13.586;2023-06-22T11:40:06;97996.31;;;30.27;50.79
43155;BME280;34212;51.018;13.586;2023-06-22T11:45:10;97999.97;;;30.23;50.63
43155;BME280;34212;51.018;13.586;2023-06-22T11:50:11;97994.84;;;30.16;50.87
43155;BME280;34212;51.018;13.586;2023-06-22T11:55:13;97989.50;;;30.06;50.76
43155;BME280;34212;51.018;13.586;2023-06-22T12:00:14;97985.25;;;30.13;49.86
43155;BME280;34212;51.018;13.586;2023-06-22T12:05:19;97976.56;;;30.25;49.93
43155;BME280;34212;51.018;13.586;2023-06-22T12:10:22;97966.56;;;30.29;49.80
43155;BME280;34212;51.018;13.586;2023-06-22T12:15:24;97959.00;;;30.21;49.91
43155;BME280;34212;51.018;13.586;2023-06-22T12:20:25;97967.78;;;30.23;49.58
43155;BME280;34212;51.018;13.586;2023-06-22T12:25:27;97955.16;;;30.36;49.18
43155;BME280;34212;51.018;13.586;2023-06-22T12:30:28;97951.91;;;30.48;48.85
43155;BME280;34212;51.018;13.586;2023-06-22T12:35:30;97938.84;;;30.40;49.08
43155;BME280;34212;51.018;13.586;2023-06-22T12:40:31;97940.59;;;30.35;49.13
43155;BME280;34212;51.018;13.586;2023-06-22T12:45:34;97928.38;;;30.42;49.10
43155;BME280;34212;51.018;13.586;2023-06-22T12:50:36;97919.88;;;30.52;48.84
43155;BME280;34212;51.018;13.586;2023-06-22T12:55:37;97920.50;;;30.63;48.54
43155;BME280;34212;51.018;13.586;2023-06-22T13:00:38;97912.75;;;30.78;48.39
43155;BME280;34212;51.018;13.586;2023-06-22T13:05:40;97908.72;;;31.21;47.80
43155;BME280;34212;51.018;13.586;2023-06-22T13:10:41;97902.91;;;32.30;46.05
43155;BME280;34212;51.018;13.586;2023-06-22T13:15:43;97903.59;;;33.01;45.09
43155;BME280;34212;51.018;13.586;2023-06-22T13:20:44;97906.53;;;33.22;44.31
43155;BME280;34212;51.018;13.586;2023-06-22T13:25:46;97894.50;;;33.09;44.68
43155;BME280;34212;51.018;13.586;2023-06-22T13:30:48;97881.47;;;32.84;44.66
43155;BME280;34212;51.018;13.586;2023-06-22T13:35:49;97868.63;;;32.62;44.89
43155;BME280;34212;51.018;13.586;2023-06-22T13:40:51;97868.56;;;32.45;45.06
43155;BME280;34212;51.018;13.586;2023-06-22T13:45:52;97839.44;;;32.30;45.38
43155;BME280;34212;51.018;13.586;2023-06-22T13:50:54;97846.59;;;32.22;44.83
43155;BME280;34212;51.018;13.586;2023-06-22T13:55:56;97845.91;;;32.16;44.47
43155;BME280;34212;51.018;13.586;2023-06-22T14:00:57;97856.44;;;32.14;44.74
43155;BME280;34212;51.018;13.586;2023-06-22T14:05:59;97845.56;;;32.18;44.70
43155;BME280;34212;51.018;13.586;2023-06-22T14:11:00;97837.03;;;32.28;44.48
43155;BME280;34212;51.018;13.586;2023-06-22T14:16:02;97830.53;;;32.33;44.04
43155;BME280;34212;51.018;13.586;2023-06-22T14:21:03;97824.22;;;32.41;43.77
43155;BME280;34212;51.018;13.586;2023-06-22T14:26:04;97819.81;;;32.23;44.11
43155;BME280;34212;51.018;13.586;2023-06-22T14:31:06;97817.34;;;32.12;44.02
43155;BME280;34212;51.018;13.586;2023-06-22T14:36:07;97817.63;;;32.02;44.25
43155;BME280;34212;51.018;13.586;2023-06-22T14:41:12;97800.00;;;31.81;44.27
43155;BME280;34212;51.018;13.586;2023-06-22T14:46:16;97786.03;;;31.68;44.58
43155;BME280;34212;51.018;13.586;2023-06-22T14:51:18;97770.31;;;31.78;43.69
43155;BME280;34212;51.018;13.586;2023-06-22T14:56:20;97772.44;;;31.81;43.33
43155;BME280;34212;51.018;13.586;2023-06-22T15:01:21;97762.88;;;31.87;43.43
43155;BME280;34212;51.018;13.586;2023-06-22T15:06:23;97770.53;;;31.90;43.37
43155;BME280;34212;51.018;13.586;2023-06-22T15:11:24;97761.00;;;31.96;42.92
43155;BME280;34212;51.018;13.586;2023-06-22T15:16:26;97752.59;;;32.01;42.83
43155;BME280;34212;51.018;13.586;2023-06-22T15:21:27;97730.38;;;32.06;42.85
43155;BME280;34212;51.018;13.586;2023-06-22T15:26:29;97726.47;;;32.07;42.56
43155;BME280;34212;51.018;13.586;2023-06-22T15:31:31;97735.53;;;31.99;42.48
43155;BME280;34212;51.018;13.586;2023-06-22T15:36:32;97723.69;;;31.98;42.94
43155;BME280;34212;51.018;13.586;2023-06-22T15:41:41;97711.84;;;31.98;42.30
43155;BME280;34212;51.018;13.586;2023-06-22T15:46:45;97687.53;;;32.00;42.29
43155;BME280;34212;51.018;13.586;2023-06-22T15:51:47;97683.78;;;32.05;42.32
43155;BME280;34212;51.018;13.586;2023-06-22T15:56:48;97686.91;;;32.03;42.46
43155;BME280;34212;51.018;13.586;2023-06-22T16:01:49;97685.25;;;32.02;42.29
43155;BME280;34212;51.018;13.586;2023-06-22T16:06:51;97673.25;;;32.07;41.87
43155;BME280;34212;51.018;13.586;2023-06-22T16:11:53;97668.88;;;32.14;42.07
43155;BME280;34212;51.018;13.586;2023-06-22T16:16:55;97673.56;;;32.05;42.00
43155;BME280;34212;51.018;13.586;2023-06-22T16:21:59;97659.56;;;31.75;42.08
43155;BME280;34212;51.018;13.586;2023-06-22T16:27:00;97666.19;;;31.57;42.57
43155;BME280;34212;51.018;13.586;2023-06-22T16:32:02;97678.34;;;31.56;42.34
43155;BME280;34212;51.018;13.586;2023-06-22T16:37:03;97673.00;;;31.60;42.22
43155;BME280;34212;51.018;13.586;2023-06-22T16:42:05;97667.97;;;31.62;42.10
43155;BME280;34212;51.018;13.586;2023-06-22T16:47:06;97657.75;;;31.54;42.51
43155;BME280;34212;51.018;13.586;2023-06-22T16:52:09;97650.25;;;31.45;42.71
43155;BME280;34212;51.018;13.586;2023-06-22T16:57:10;97637.16;;;31.51;42.53
43155;BME280;34212;51.018;13.586;2023-06-22T17:02:15;97618.34;;;31.44;42.80
43155;BME280;34212;51.018;13.586;2023-06-22T17:07:18;97624.94;;;31.43;42.60
43155;BME280;34212;51.018;13.586;2023-06-22T17:12:20;97596.63;;;31.78;42.12
43155;BME280;34212;51.018;13.586;2023-06-22T17:17:24;97594.25;;;32.02;42.46
43155;BME280;34212;51.018;13.586;2023-06-22T17:22:28;97583.66;;;32.56;41.70
43155;BME280;34212;51.018;13.586;2023-06-22T17:27:36;97577.72;;;32.84;41.16
43155;BME280;34212;51.018;13.586;2023-06-22T17:32:37;97588.53;;;32.42;42.16
43155;BME280;34212;51.018;13.586;2023-06-22T17:37:49;97558.84;;;31.87;42.86
43155;BME280;34212;51.018;13.586;2023-06-22T17:42:51;97565.16;;;31.35;43.34
43155;BME280;34212;51.018;13.586;2023-06-22T17:47:53;97550.09;;;30.93;43.88
43155;BME280;34212;51.018;13.586;2023-06-22T17:52:54;97560.94;;;30.58;44.64
43155;BME280;34212;51.018;13.586;2023-06-22T17:57:57;97542.47;;;30.27;44.86
43155;BME280;34212;51.018;13.586;2023-06-22T18:02:59;97522.72;;;30.03;45.12
43155;BME280;34212;51.018;13.586;2023-06-22T18:08:02;97517.94;;;29.86;45.21
43155;BME280;34212;51.018;13.586;2023-06-22T18:13:04;97514.75;;;29.70;45.26
43155;BME280;34212;51.018;13.586;2023-06-22T18:18:06;97512.84;;;29.57;45.54
43155;BME280;34212;51.018;13.586;2023-06-22T18:23:09;97509.31;;;29.42;45.77
43155;BME280;34212;51.018;13.586;2023-06-22T18:28:11;97502.03;;;29.24;45.92
43155;BME280;34212;51.018;13.586;2023-06-22T18:33:13;97495.13;;;29.13;46.28
43155;BME280;34212;51.018;13.586;2023-06-22T18:38:15;97481.94;;;29.01;46.30
43155;BME280;34212;51.018;13.586;2023-06-22T18:43:23;97489.53;;;28.90;46.48
43155;BME280;34212;51.018;13.586;2023-06-22T18:48:24;97492.50;;;28.80;46.75
43155;BME280;34212;51.018;13.586;2023-06-22T18:53:26;97497.41;;;28.69;46.96
43155;BME280;34212;51.018;13.586;2023-06-22T18:58:28;97496.16;;;28.62;47.10
43155;BME280;34212;51.018;13.586;2023-06-22T19:03:30;97500.72;;;28.52;47.34
43155;BME280;34212;51.018;13.586;2023-06-22T19:13:55;97512.56;;;28.34;47.85
43155;BME280;34212;51.018;13.586;2023-06-22T19:18:56;97514.38;;;28.25;47.94
43155;BME280;34212;51.018;13.586;2023-06-22T19:23:58;97509.88;;;28.15;48.11
43155;BME280;34212;51.018;13.586;2023-06-22T19:28:59;97482.66;;;28.05;48.08
43155;BME280;34212;51.018;13.586;2023-06-22T19:34:02;97491.34;;;27.93;48.88
43155;BME280;34212;51.018;13.586;2023-06-22T19:39:06;97475.09;;;27.83;48.82
43155;BME280;34212;51.018;13.586;2023-06-22T19:44:07;97475.25;;;27.73;49.08
43155;BME280;34212;51.018;13.586;2023-06-22T19:49:10;97479.78;;;27.63;49.35
43155;BME280;34212;51.018;13.586;2023-06-22T19:54:11;97454.66;;;27.56;49.54
43155;BME280;34212;51.018;13.586;2023-06-22T19:59:14;97438.34;;;27.51;49.83
43155;BME280;34212;51.018;13.586;2023-06-22T20:04:17;97443.88;;;27.46;50.15
43155;BME280;34212;51.018;13.586;2023-06-22T20:09:18;97460.38;;;27.41;50.13
43155;BME280;34212;51.018;13.586;2023-06-22T20:14:20;97452.75;;;27.38;50.40
43155;BME280;34212;51.018;13.586;2023-06-22T20:19:33;97418.09;;;27.33;50.46
43155;BME280;34212;51.018;13.586;2023-06-22T20:24:35;97397.97;;;27.24;50.63
43155;BME280;34212;51.018;13.586;2023-06-22T20:29:38;97406.84;;;27.16;51.00
43155;BME280;34212;51.018;13.586;2023-06-22T20:34:45;97406.38;;;27.09;51.23
43155;BME280;34212;51.018;13.586;2023-06-22T20:39:48;97404.53;;;27.04;51.24
43155;BME280;34212;51.018;13.586;2023-06-22T20:44:50;97390.63;;;27.01;51.01
43155;BME280;34212;51.018;13.586;2023-06-22T20:49:52;97380.00;;;26.99;51.22
43155;BME280;34212;51.018;13.586;2023-06-22T20:54:58;97357.88;;;26.95;51.49
43155;BME280;34212;51.018;13.586;2023-06-22T21:00:00;97380.63;;;26.91;51.32
43155;BME280;34212;51.018;13.586;2023-06-22T21:05:03;97366.75;;;26.87;51.35
43155;BME280;34212;51.018;13.586;2023-06-22T21:10:05;97378.00;;;26.86;51.32
43155;BME280;34212;51.018;13.586;2023-06-22T21:15:07;97389.53;;;26.83;51.49
43155;BME280;34212;51.018;13.586;2023-06-22T21:20:09;97391.22;;;26.79;51.23
43155;BME280;34212;51.018;13.586;2023-06-22T21:25:11;97392.38;;;26.72;51.43
43155;BME280;34212;51.018;13.586;2023-06-22T21:30:13;97415.44;;;26.66;51.66
43155;BME280;34212;51.018;13.586;2023-06-22T21:35:15;97428.38;;;26.61;52.15
43155;BME280;34212;51.018;13.586;2023-06-22T21:40:16;97432.78;;;26.57;52.00
43155;BME280;34212;51.018;13.586;2023-06-22T21:45:18;97416.22;;;26.48;52.33
43155;BME280;34212;51.018;13.586;2023-06-22T21:50:19;97422.09;;;26.36;53.19
43155;BME280;34212;51.018;13.586;2023-06-22T21:55:20;97417.56;;;26.26;53.50
43155;BME280;34212;51.018;13.586;2023-06-22T22:00:22;97454.41;;;26.05;54.48
43155;BME280;34212;51.018;13.586;2023-06-22T22:05:23;97467.19;;;25.75;54.96
43155;BME280;34212;51.018;13.586;2023-06-22T22:10:25;97497.00;;;25.32;56.88
43155;BME280;34212;51.018;13.586;2023-06-22T22:15:26;97501.63;;;24.77;59.55
43155;BME280;34212;51.018;13.586;2023-06-22T22:20:27;97518.91;;;24.37;62.13
43155;BME280;34212;51.018;13.586;2023-06-22T22:25:29;97493.34;;;24.12;63.47
43155;BME280;34212;51.018;13.586;2023-06-22T22:30:32;97477.00;;;23.97;64.89
43155;BME280;34212;51.018;13.586;2023-06-22T22:35:33;97522.22;;;23.93;65.54
43155;BME280;34212;51.018;13.586;2023-06-22T22:40:35;97491.97;;;23.89;66.59
43155;BME280;34212;51.018;13.586;2023-06-22T22:54:16;97601.84;;;23.32;79.92
43155;BME280;34212;51.018;13.586;2023-06-22T22:59:18;97626.38;;;22.15;83.44
43155;BME280;34212;51.018;13.586;2023-06-22T23:04:19;97602.13;;;21.49;85.87
43155;BME280;34212;51.018;13.586;2023-06-22T23:09:21;97663.28;;;20.96;86.73
43155;BME280;34212;51.018;13.586;2023-06-22T23:14:22;97764.16;;;20.81;89.83
43155;BME280;34212;51.018;13.586;2023-06-22T23:19:24;97776.63;;;20.99;89.31
43155;BME280;34212;51.018;13.586;2023-06-22T23:24:26;97774.66;;;21.11;88.75
43155;BME280;34212;51.018;13.586;2023-06-22T23:29:28;97756.47;;;21.12;89.11
43155;BME280;34212;51.018;13.586;2023-06-22T23:34:29;97782.59;;;21.18;89.34
43155;BME280;34212;51.018;13.586;2023-06-22T23:39:32;97749.66;;;21.26;89.26
43155;BME280;34212;51.018;13.586;2023-06-22T23:44:34;97731.78;;;21.30;88.87
43155;BME280;34212;51.018;13.586;2023-06-22T23:49:36;97734.63;;;21.35;88.84
43155;BME280;34212;51.018;13.586;2023-06-22T23:54:37;97730.59;;;21.38;88.62
43155;BME280;34212;51.018;13.586;2023-06-22T23:59:39;97713.53;;;21.42;89.26
